KUIL Airport Information

Runway Information
Runway 04 Length 4210 ft width 100 ft
Elevation 175 ft Threshold 0 ft Heading 58
Runway 22 Length 4210 ft Width 100 ft
Elevation 194 ft Threshold 1089 ft Heading 238
Airport Frequencies
Type ASOS Name ASOS Frequency 135.225 MHZ
Type CTAF Name CTAF Frequency 122.9 MHZ
Airport Navaids
Airport Weather Information & NOTAM
ADDS - METARS form results

(1202 UTC 21 September 2018)
Data provider http://aviationweather.gov/metar/data/
 
METAR text: KUIL 211153Z AUTO 20004KT 6SM -RA BR OVC003 15/14 A2998 RMK AO2 RAB36 CIG 003V007 SLP152 P0000 60002 70091 T01500144 10150 20139 56007 $
Conditions at: KUIL (QUILLAYUTE , WA, US) observed 1153 UTC 21 September 2018
Temperature: 15.0°C (59°F)
Dewpoint: 14.4°C (58°F) [RH = 96%]
Pressure (altimeter): 29.98 inches Hg (1015.3 mb)
[Sea-level pressure: 1015.2 mb]
Winds: from the SSW (200 degrees) at 5 MPH (4 knots; 2.1 m/s)
Visibility: 6 miles (10 km)
Ceiling: 300 feet AGL
Clouds: overcast cloud deck at 300 feet AGL
Weather: -RA BR  (light rain, mist)
SOME DATA ABOVE MAY BE INACCURATE!!!
"$" is an indication the sensor requires maintenance